Terminal Aerodrome Forecast
Issued by NWS Cleveland, OH

Home | Current Version | Previous Version | Graphics & Text | Print | Product List | Glossary On
Versions: 1 2 3 4 5 6 7 8 9 10 11 12 13 14 15 16 17
000
FTUS41 KCLE 172335
TAFCAK
TAF
KCAK 172335Z 1800/1824 22010KT P6SM BKN070
     FM180100 22010KT P6SM VCSH BKN050
     FM180300 22008KT P6SM BKN100
     FM180900 23006KT P6SM BKN025
     FM181100 23006KT 6SM BR BKN015
     FM181400 25010KT P6SM BKN025
     FM181700 25012KT P6SM BKN035
     FM182200 27012KT P6SM SCT035=

USA.gov is the U.S. government's official web portal to all federal, state and local government web resources and services.